Time;durP1;ratioP1;P1;durP2;ratioP2;P2;SDS_P1;SDS_P2;PMS_P1;PMS_P2;Temp;Humidity;BMP_temperature;BMP_pressure;BME280_temperature;BME280_humidity;BME280_pressure;Samples;Min_cycle;Max_cycle;Signal;HPM_P1;HPM_P2
2023/01/27 04:01:12;;;;;;;;;;;3.40;99.90;;;;;;5890352;23;20236;-72
2023/01/27 04:09:09;;;;;;;;;;;3.30;99.90;;;;;;5018160;28;20423;-71
2023/01/27 04:11:55;;;;;;;;;;;3.30;99.90;;;;;;4999808;28;19972;-72
2023/01/27 04:14:22;;;;;;;;;;;3.30;99.90;;;;;;4999363;28;20015;-74
2023/01/27 04:16:50;;;;;;;;;;;3.30;99.90;;;;;;4999346;28;19991;-72
2023/01/27 04:19:17;;;;;;;;;;;3.20;99.90;;;;;;4989622;28;19926;-72
2023/01/27 04:21:43;;;;;;;;;;;3.20;99.90;;;;;;5006718;28;20392;-71
2023/01/27 04:24:16;;;;;;;;;;;3.20;99.90;;;;;;4991843;28;19948;-74
2023/01/27 04:26:43;;;;;;;;;;;3.10;99.90;;;;;;5007350;28;19932;-73
2023/01/27 04:29:11;;;;;;;;;;;3.10;99.90;;;;;;4990274;28;20395;-73
2023/01/27 04:31:38;;;;;;;;;;;3.10;99.90;;;;;;4992344;28;19968;-72
2023/01/27 04:34:06;;;;;;;;;;;3.00;99.90;;;;;;4992075;28;20452;-72
2023/01/27 04:36:33;;;;;;;;;;;3.00;99.90;;;;;;5006986;28;19996;-73
2023/01/27 04:39:00;;;;;;;;;;;3.00;99.90;;;;;;4990433;28;19972;-73
2023/01/27 04:41:26;;;;;;;;;;;3.00;99.90;;;;;;4990273;28;20396;-70
2023/01/27 04:43:53;;;;;;;;;;;3.00;99.90;;;;;;4990211;28;19964;-72
2023/01/27 04:46:20;;;;;;;;;;;3.10;99.90;;;;;;4990523;28;19929;-72
2023/01/27 04:48:46;;;;;;;;;;;3.10;99.90;;;;;;4990752;28;19926;-72
2023/01/27 04:51:15;;;;;;;;;;;3.00;99.90;;;;;;4990166;28;20435;-74
2023/01/27 04:53:42;;;;;;;;;;;3.00;99.90;;;;;;4990110;28;19925;-73
2023/01/27 04:56:18;;;;;;;;;;;3.00;99.90;;;;;;4990775;28;19960;-72
2023/01/27 04:58:44;;;;;;;;;;;3.00;99.90;;;;;;4990368;28;20006;-73
2023/01/27 05:01:11;;;;;;;;;;;3.00;99.90;;;;;;4989925;28;19929;-72
2023/01/27 05:03:38;;;;;;;;;;;3.00;99.90;;;;;;4991813;28;20451;-72
2023/01/27 05:06:05;;;;;;;;;;;3.00;99.90;;;;;;4994196;28;19926;-71
2023/01/27 05:08:33;;;;;;;;;;;3.00;99.90;;;;;;4994069;28;19980;-72
2023/01/27 05:11:00;;;;;;;;;;;3.00;99.90;;;;;;4993817;28;19992;-70
2023/01/27 05:13:27;;;;;;;;;;;3.00;99.90;;;;;;4993527;28;20373;-73
2023/01/27 05:16:03;;;;;;;;;;;3.00;99.90;;;;;;4994165;28;20371;-72
2023/01/27 05:18:30;;;;;;;;;;;3.00;99.90;;;;;;4993637;28;20404;-70
2023/01/27 05:20:58;;;;;;;;;;;3.00;99.90;;;;;;4993678;28;20420;-72
2023/01/27 05:23:37;;;;;;;;;;;3.00;99.90;;;;;;4993704;28;19933;-71
2023/01/27 05:26:07;;;;;;;;;;;3.00;99.90;;;;;;4993774;28;19980;-71
2023/01/27 05:28:35;;;;;;;;;;;2.90;99.90;;;;;;4993558;28;19933;-72
2023/01/27 05:31:03;;;;;;;;;;;2.90;99.90;;;;;;4993492;28;19930;-73
2023/01/27 05:33:29;;;;;;;;;;;2.80;99.90;;;;;;4993765;28;19961;-72
2023/01/27 05:35:58;;;;;;;;;;;2.80;99.90;;;;;;4993428;28;19930;-73
2023/01/27 05:38:25;;;;;;;;;;;2.70;99.90;;;;;;4993513;28;19929;-72
2023/01/27 05:40:54;;;;;;;;;;;2.60;99.90;;;;;;4993400;28;19988;-73
2023/01/27 05:43:22;;;;;;;;;;;2.60;99.90;;;;;;4993296;28;19925;-69
2023/01/27 05:45:49;;;;;;;;;;;2.50;99.90;;;;;;4993206;28;19926;-69
2023/01/27 05:48:16;;;;;;;;;;;2.40;99.90;;;;;;4994032;28;19933;-72
2023/01/27 05:50:43;;;;;;;;;;;2.40;99.90;;;;;;4993690;28;19965;-71
2023/01/27 05:53:10;;;;;;;;;;;2.50;99.90;;;;;;4993312;28;19929;-70
2023/01/27 05:55:36;;;;;;;;;;;2.40;99.90;;;;;;4993807;28;19972;-74
2023/01/27 05:58:03;;;;;;;;;;;2.50;99.90;;;;;;4993779;28;19926;-72
2023/01/27 06:00:32;;;;;;;;;;;2.50;99.90;;;;;;4993451;28;19976;-73
2023/01/27 06:02:58;;;;;;;;;;;2.40;99.90;;;;;;4990763;28;19926;-72
2023/01/27 06:05:25;;;;;;;;;;;2.40;99.90;;;;;;4992874;28;19925;-72
2023/01/27 06:07:52;;;;;;;;;;;2.50;99.90;;;;;;4993948;28;19926;-72
2023/01/27 06:10:19;;;;;;;;;;;2.50;99.90;;;;;;4992530;28;19925;-72
2023/01/27 06:12:45;;;;;;;;;;;2.50;99.90;;;;;;4991874;28;19925;-72
2023/01/27 06:15:12;;;;;;;;;;;2.50;99.90;;;;;;4991565;28;20356;-71
2023/01/27 06:17:40;;;;;;;;;;;2.50;99.90;;;;;;4991814;28;19934;-71
2023/01/27 06:20:08;;;;;;;;;;;2.50;99.90;;;;;;4991632;28;19934;-74
2023/01/27 06:22:35;;;;;;;;;;;2.60;99.90;;;;;;4992868;28;19965;-72
2023/01/27 06:25:01;;;;;;;;;;;2.60;99.90;;;;;;4992734;28;19976;-71
2023/01/27 06:27:28;;;;;;;;;;;2.60;99.90;;;;;;4993524;28;19926;-71
2023/01/27 06:29:55;;;;;;;;;;;2.60;99.90;;;;;;4992262;28;19925;-71
2023/01/27 06:32:21;;;;;;;;;;;2.70;99.90;;;;;;4992474;28;19926;-72
2023/01/27 06:34:50;;;;;;;;;;;2.70;99.90;;;;;;4992236;28;20389;-72
2023/01/27 06:37:17;;;;;;;;;;;2.70;99.90;;;;;;4982235;28;19930;-72
2023/01/27 06:39:44;;;;;;;;;;;2.80;99.90;;;;;;4972675;28;19944;-72
2023/01/27 06:42:10;;;;;;;;;;;2.90;99.90;;;;;;4972677;28;20332;-72
2023/01/27 06:44:37;;;;;;;;;;;2.80;99.90;;;;;;4972679;28;19926;-72
2023/01/27 06:47:04;;;;;;;;;;;2.90;99.90;;;;;;4972359;28;19926;-69
2023/01/27 06:49:31;;;;;;;;;;;2.90;99.90;;;;;;4973478;28;19982;-72
2023/01/27 06:51:59;;;;;;;;;;;2.90;99.90;;;;;;4972808;28;19926;-72
2023/01/27 06:54:26;;;;;;;;;;;3.00;99.90;;;;;;4972271;28;19933;-72
2023/01/27 06:56:52;;;;;;;;;;;3.00;99.90;;;;;;4972422;28;19926;-73
2023/01/27 06:59:19;;;;;;;;;;;3.00;99.90;;;;;;4971913;28;20360;-72
2023/01/27 07:01:46;;;;;;;;;;;3.00;99.90;;;;;;4972459;28;19926;-71
2023/01/27 07:04:13;;;;;;;;;;;2.90;99.90;;;;;;4972053;28;19933;-72
2023/01/27 07:06:40;;;;;;;;;;;2.90;99.90;;;;;;4972205;28;19926;-72
2023/01/27 07:09:09;;;;;;;;;;;2.90;99.90;;;;;;4971963;28;19949;-72
2023/01/27 07:11:36;;;;;;;;;;;3.00;99.90;;;;;;4971978;28;19933;-72
2023/01/27 07:14:03;;;;;;;;;;;3.00;99.90;;;;;;4972178;28;20353;-72
2023/01/27 07:16:29;;;;;;;;;;;3.00;99.90;;;;;;4972256;28;19965;-72
2023/01/27 07:18:56;;;;;;;;;;;3.00;99.90;;;;;;4971718;28;20402;-72
2023/01/27 07:21:24;;;;;;;;;;;3.00;99.90;;;;;;4971767;28;20317;-72
2023/01/27 07:23:51;;;;;;;;;;;3.00;99.90;;;;;;4971786;28;19930;-72
2023/01/27 07:26:19;;;;;;;;;;;3.00;99.90;;;;;;4971416;28;20357;-71
2023/01/27 07:28:46;;;;;;;;;;;3.10;99.90;;;;;;4972171;28;19982;-69
2023/01/27 07:31:12;;;;;;;;;;;3.00;99.90;;;;;;4971878;28;19981;-73
2023/01/27 07:33:39;;;;;;;;;;;3.00;99.90;;;;;;4971338;28;19985;-72
2023/01/27 07:36:06;;;;;;;;;;;3.10;99.90;;;;;;4972005;28;19934;-71
2023/01/27 07:38:32;;;;;;;;;;;3.10;99.90;;;;;;4972903;28;19973;-72
2023/01/27 07:41:03;;;;;;;;;;;3.00;99.90;;;;;;4971350;28;20400;-74
2023/01/27 07:43:31;;;;;;;;;;;3.10;99.90;;;;;;4971675;28;19926;-73
2023/01/27 07:45:58;;;;;;;;;;;3.10;99.90;;;;;;4971773;28;19926;-71
2023/01/27 07:48:25;;;;;;;;;;;3.10;99.90;;;;;;4971700;28;19977;-72
2023/01/27 07:50:51;;;;;;;;;;;3.10;99.90;;;;;;4971589;28;19992;-72
2023/01/27 07:53:18;;;;;;;;;;;3.10;99.90;;;;;;4971637;28;19933;-70
2023/01/27 07:55:45;;;;;;;;;;;3.10;99.90;;;;;;4971708;28;20046;-71
2023/01/27 07:58:12;;;;;;;;;;;3.10;99.90;;;;;;4971298;28;19934;-71
2023/01/27 08:00:40;;;;;;;;;;;3.20;99.90;;;;;;4971330;28;19926;-71
2023/01/27 08:03:07;;;;;;;;;;;3.20;99.90;;;;;;4971294;28;20354;-71
2023/01/27 08:05:34;;;;;;;;;;;3.30;99.90;;;;;;4971323;28;19926;-72
2023/01/27 08:08:03;;;;;;;;;;;3.20;99.90;;;;;;4971651;28;19978;-72
2023/01/27 08:10:30;;;;;;;;;;;3.20;99.90;;;;;;4975842;28;19925;-70
2023/01/27 08:12:57;;;;;;;;;;;3.30;99.90;;;;;;4990612;28;19961;-72
2023/01/27 08:15:23;;;;;;;;;;;3.30;99.90;;;;;;4990446;28;19996;-72
2023/01/27 08:17:55;;;;;;;;;;;3.30;99.90;;;;;;4990615;28;20415;-69
2023/01/27 08:20:22;;;;;;;;;;;3.30;99.90;;;;;;4990623;28;20412;-70
2023/01/27 08:22:49;;;;;;;;;;;3.40;99.90;;;;;;4991070;28;19934;-72
2023/01/27 08:25:16;;;;;;;;;;;3.40;99.90;;;;;;4990413;28;19926;-73
2023/01/27 08:27:42;;;;;;;;;;;3.40;99.90;;;;;;4990621;28;19926;-71
2023/01/27 08:30:10;;;;;;;;;;;3.50;99.90;;;;;;4990375;28;19926;-72
2023/01/27 08:32:36;;;;;;;;;;;3.50;99.90;;;;;;4990475;28;19930;-72
2023/01/27 08:35:05;;;;;;;;;;;3.50;99.90;;;;;;4990486;28;20004;-69
2023/01/27 08:37:32;;;;;;;;;;;3.50;99.90;;;;;;4990576;28;19933;-70
2023/01/27 08:39:58;;;;;;;;;;;3.50;99.90;;;;;;4993793;28;20447;-72
2023/01/27 08:42:25;;;;;;;;;;;3.50;99.90;;;;;;4994403;28;20363;-72
2023/01/27 08:44:52;;;;;;;;;;;3.60;99.90;;;;;;4994279;28;19934;-70
2023/01/27 08:47:19;;;;;;;;;;;3.60;99.90;;;;;;4993854;28;19929;-72
2023/01/27 08:49:46;;;;;;;;;;;3.70;99.90;;;;;;4994256;28;19988;-73
2023/01/27 08:52:14;;;;;;;;;;;3.70;99.90;;;;;;4994121;28;19933;-72
2023/01/27 08:54:41;;;;;;;;;;;3.80;99.90;;;;;;4993964;28;19965;-72
2023/01/27 08:57:08;;;;;;;;;;;3.90;99.90;;;;;;4994188;28;20420;-72
2023/01/27 08:59:35;;;;;;;;;;;3.90;99.90;;;;;;4993949;28;19930;-69
2023/01/27 09:02:01;;;;;;;;;;;3.90;99.90;;;;;;4993891;28;20285;-72
2023/01/27 09:04:29;;;;;;;;;;;3.90;99.90;;;;;;4994089;28;20286;-73
2023/01/27 09:06:56;;;;;;;;;;;3.90;99.90;;;;;;4994147;28;19932;-72
2023/01/27 09:09:24;;;;;;;;;;;4.00;99.90;;;;;;4993593;28;20305;-72
2023/01/27 09:11:51;;;;;;;;;;;4.00;99.90;;;;;;4979448;28;19930;-72
2023/01/27 09:14:19;;;;;;;;;;;4.00;99.90;;;;;;4974195;28;19930;-72
2023/01/27 09:16:45;;;;;;;;;;;4.10;99.90;;;;;;4974382;28;19926;-72
2023/01/27 09:19:12;;;;;;;;;;;4.10;99.90;;;;;;4973969;28;20286;-72
2023/01/27 09:21:39;;;;;;;;;;;4.10;99.90;;;;;;4974237;28;19926;-72
2023/01/27 09:24:05;;;;;;;;;;;4.10;99.90;;;;;;4973772;28;20397;-70
2023/01/27 09:26:34;;;;;;;;;;;4.20;99.90;;;;;;4974391;28;20329;-73
2023/01/27 09:29:00;;;;;;;;;;;4.20;99.90;;;;;;4973991;28;20401;-74
2023/01/27 09:31:27;;;;;;;;;;;4.20;99.90;;;;;;4975340;28;20012;-72
2023/01/27 09:33:54;;;;;;;;;;;4.20;99.90;;;;;;4975003;28;19962;-69
2023/01/27 09:36:21;;;;;;;;;;;4.20;99.90;;;;;;4974021;28;20373;-72
2023/01/27 09:38:49;;;;;;;;;;;4.20;99.90;;;;;;4973852;28;20423;-72
2023/01/27 09:41:46;;;;;;;;;;;4.20;99.90;;;;;;4973870;28;19962;-72
2023/01/27 09:44:31;;;;;;;;;;;4.20;99.90;;;;;;4918178;29;20422;-71
2023/01/27 09:47:13;;;;;;;;;;;4.20;99.90;;;;;;4966792;28;19926;-72
2023/01/27 09:49:49;;;;;;;;;;;4.20;99.90;;;;;;4972834;28;19926;-73
2023/01/27 09:52:31;;;;;;;;;;;4.20;99.90;;;;;;4973586;28;19977;-72
2023/01/27 09:55:01;;;;;;;;;;;4.20;99.90;;;;;;4973549;28;19926;-72
2023/01/27 09:57:34;;;;;;;;;;;4.30;99.90;;;;;;4973554;28;19984;-73
2023/01/27 10:00:15;;;;;;;;;;;4.30;99.90;;;;;;4973246;28;19926;-72
2023/01/27 10:02:54;;;;;;;;;;;4.30;99.90;;;;;;4973457;28;19934;-73
2023/01/27 10:05:33;;;;;;;;;;;4.40;99.90;;;;;;4973233;28;19926;-72
2023/01/27 10:08:17;;;;;;;;;;;4.40;99.90;;;;;;4973686;28;19926;-73
2023/01/27 10:10:59;;;;;;;;;;;4.40;99.90;;;;;;4978442;28;19993;-73
2023/01/27 10:13:34;;;;;;;;;;;4.40;99.90;;;;;;4992757;28;19925;-71
2023/01/27 10:16:12;;;;;;;;;;;4.40;99.90;;;;;;4992974;28;19981;-72
2023/01/27 10:18:53;;;;;;;;;;;4.40;99.90;;;;;;4993418;28;19932;-72
2023/01/27 10:21:27;;;;;;;;;;;4.50;99.90;;;;;;4990458;28;19925;-71
2023/01/27 10:23:56;;;;;;;;;;;4.40;99.90;;;;;;4992622;28;19930;-68
2023/01/27 10:26:27;;;;;;;;;;;4.40;99.90;;;;;;4992521;28;20413;-73
2023/01/27 10:28:58;;;;;;;;;;;4.50;99.90;;;;;;4992496;28;20340;-71
2023/01/27 10:31:26;;;;;;;;;;;4.50;99.90;;;;;;4992589;28;19926;-71
2023/01/27 10:33:54;;;;;;;;;;;4.60;99.90;;;;;;4992230;28;19930;-72
2023/01/27 10:36:26;;;;;;;;;;;4.60;99.90;;;;;;4992207;28;19930;-71
2023/01/27 10:38:55;;;;;;;;;;;4.60;99.90;;;;;;4991910;28;19981;-72
2023/01/27 10:41:27;;;;;;;;;;;4.70;99.90;;;;;;4991765;28;19926;-71
2023/01/27 10:44:01;;;;;;;;;;;4.80;99.90;;;;;;4989045;28;19929;-69
2023/01/27 10:46:34;;;;;;;;;;;4.80;99.90;;;;;;4995668;28;19925;-72
2023/01/27 10:49:04;;;;;;;;;;;4.80;99.90;;;;;;5008829;28;19925;-72
2023/01/27 10:51:34;;;;;;;;;;;4.90;99.90;;;;;;4998001;28;19996;-73
2023/01/27 10:54:05;;;;;;;;;;;4.90;99.90;;;;;;5000197;28;19926;-73
2023/01/27 10:56:34;;;;;;;;;;;5.00;99.90;;;;;;4995279;28;19926;-71
2023/01/27 10:59:04;;;;;;;;;;;4.90;99.90;;;;;;4983108;28;19928;-72
2023/01/27 11:01:32;;;;;;;;;;;4.90;99.90;;;;;;5003480;28;19932;-71
2023/01/27 11:04:02;;;;;;;;;;;4.90;99.90;;;;;;5012463;28;19926;-72
2023/01/27 11:06:30;;;;;;;;;;;4.90;99.90;;;;;;5012179;28;19941;-73
2023/01/27 11:09:04;;;;;;;;;;;4.80;99.90;;;;;;5010823;28;19971;-72
2023/01/27 11:11:48;;;;;;;;;;;4.90;99.90;;;;;;4999809;28;19926;-76
2023/01/27 11:14:16;;;;;;;;;;;4.90;99.90;;;;;;4992390;28;20400;-71
2023/01/27 11:16:45;;;;;;;;;;;4.90;99.90;;;;;;4986883;28;19933;-69
2023/01/27 11:19:16;;;;;;;;;;;4.90;99.90;;;;;;4999795;28;19929;-71
2023/01/27 11:21:43;;;;;;;;;;;4.90;99.90;;;;;;4999832;28;19930;-71
2023/01/27 11:24:18;;;;;;;;;;;4.90;99.90;;;;;;4998811;28;20320;-69
2023/01/27 11:26:48;;;;;;;;;;;5.00;99.90;;;;;;4991441;28;19926;-70
2023/01/27 11:29:19;;;;;;;;;;;5.00;99.90;;;;;;5002269;28;19929;-72
2023/01/27 11:31:49;;;;;;;;;;;5.00;99.90;;;;;;5001127;28;20372;-70
2023/01/27 11:34:17;;;;;;;;;;;5.00;99.90;;;;;;4999404;28;19926;-71
2023/01/27 11:36:44;;;;;;;;;;;5.10;99.90;;;;;;5001818;28;19929;-73
2023/01/27 11:39:12;;;;;;;;;;;5.10;99.90;;;;;;4999819;28;19941;-73
2023/01/27 11:41:43;;;;;;;;;;;5.20;99.90;;;;;;5007622;28;19929;-72
2023/01/27 11:44:16;;;;;;;;;;;5.20;99.90;;;;;;4996320;28;19925;-71
2023/01/27 11:46:43;;;;;;;;;;;5.30;99.90;;;;;;5001192;28;20396;-73
2023/01/27 11:49:10;;;;;;;;;;;5.40;99.90;;;;;;4994694;28;19957;-73
2023/01/27 11:51:39;;;;;;;;;;;5.50;99.90;;;;;;5003035;28;20340;-72
2023/01/27 11:54:09;;;;;;;;;;;5.60;99.90;;;;;;4998239;28;20363;-72
2023/01/27 11:56:36;;;;;;;;;;;5.60;99.90;;;;;;5003338;28;19929;-72
2023/01/27 11:59:06;;;;;;;;;;;5.60;99.90;;;;;;5002511;28;20058;-72
2023/01/27 12:01:38;;;;;;;;;;;5.70;99.90;;;;;;4998607;28;19929;-72
2023/01/27 12:04:06;;;;;;;;;;;5.70;99.90;;;;;;4991870;28;19972;-73
2023/01/27 12:06:35;;;;;;;;;;;5.80;99.90;;;;;;4998582;28;20463;-73
2023/01/27 12:09:02;;;;;;;;;;;5.80;99.90;;;;;;5003099;28;19926;-72
2023/01/27 12:11:30;;;;;;;;;;;5.80;99.90;;;;;;5002249;28;19925;-73
2023/01/27 12:13:58;;;;;;;;;;;5.70;99.90;;;;;;5003928;28;19973;-73
2023/01/27 12:16:32;;;;;;;;;;;5.60;99.90;;;;;;4994348;28;19941;-73
2023/01/27 12:19:02;;;;;;;;;;;5.60;99.90;;;;;;5007896;28;20363;-74
2023/01/27 12:21:40;;;;;;;;;;;5.50;99.90;;;;;;4998923;28;19925;-73
2023/01/27 12:24:13;;;;;;;;;;;5.50;99.90;;;;;;5001471;28;19938;-73
2023/01/27 12:26:40;;;;;;;;;;;5.50;99.90;;;;;;5000958;28;19929;-73
2023/01/27 12:29:12;;;;;;;;;;;5.50;99.90;;;;;;5002247;28;19930;-73
2023/01/27 12:31:45;;;;;;;;;;;5.40;99.90;;;;;;4996641;28;19926;-72
2023/01/27 12:34:22;;;;;;;;;;;5.50;99.90;;;;;;4999124;28;19976;-72
2023/01/27 12:36:50;;;;;;;;;;;5.40;99.90;;;;;;4999306;28;20359;-73
2023/01/27 12:39:37;;;;;;;;;;;5.40;99.90;;;;;;4998011;28;19926;-73
2023/01/27 12:42:04;;;;;;;;;;;5.40;99.90;;;;;;5014963;28;19925;-73
2023/01/27 12:44:40;;;;;;;;;;;5.50;99.90;;;;;;5000419;28;20340;-73
2023/01/27 12:47:20;;;;;;;;;;;5.50;99.90;;;;;;4991384;28;20368;-73
2023/01/27 12:49:47;;;;;;;;;;;5.50;99.90;;;;;;4997638;28;19933;-72
2023/01/27 12:52:17;;;;;;;;;;;5.50;99.90;;;;;;4995604;28;20348;-70
2023/01/27 12:54:44;;;;;;;;;;;5.60;99.90;;;;;;4986314;28;19992;-70
2023/01/27 12:57:13;;;;;;;;;;;5.60;99.90;;;;;;5001915;28;19941;-72
2023/01/27 12:59:45;;;;;;;;;;;5.60;99.90;;;;;;4998094;28;20377;-72
2023/01/27 13:02:18;;;;;;;;;;;5.60;99.90;;;;;;4998801;28;20363;-73
2023/01/27 13:04:47;;;;;;;;;;;5.60;99.90;;;;;;4997735;28;19926;-72
2023/01/27 13:07:16;;;;;;;;;;;5.60;99.90;;;;;;4998608;28;19957;-70
2023/01/27 13:09:48;;;;;;;;;;;5.70;99.90;;;;;;5002135;28;19976;-71
2023/01/27 13:12:16;;;;;;;;;;;5.70;99.90;;;;;;4995756;28;19934;-70
2023/01/27 13:14:43;;;;;;;;;;;5.70;99.90;;;;;;4996935;28;19925;-77
2023/01/27 13:17:25;;;;;;;;;;;5.70;99.90;;;;;;4996159;28;20388;-74
2023/01/27 13:19:55;;;;;;;;;;;5.60;99.90;;;;;;5000442;28;19929;-76
2023/01/27 13:22:25;;;;;;;;;;;5.60;99.90;;;;;;4999009;28;19926;-76
2023/01/27 13:24:54;;;;;;;;;;;5.50;99.90;;;;;;4982696;28;19953;-69
2023/01/27 13:27:21;;;;;;;;;;;5.50;99.90;;;;;;5001608;28;19930;-71
2023/01/27 13:29:51;;;;;;;;;;;5.40;99.90;;;;;;5001840;28;19933;-69
2023/01/27 13:32:22;;;;;;;;;;;5.40;99.90;;;;;;4999570;28;19925;-71
2023/01/27 13:34:50;;;;;;;;;;;5.30;99.90;;;;;;5001476;28;19965;-71
2023/01/27 13:37:20;;;;;;;;;;;5.30;99.90;;;;;;5005837;28;20025;-75
2023/01/27 13:39:52;;;;;;;;;;;5.30;99.90;;;;;;5001588;28;19988;-72
2023/01/27 13:42:20;;;;;;;;;;;5.30;99.90;;;;;;5011986;28;19926;-77
2023/01/27 13:44:49;;;;;;;;;;;5.20;99.90;;;;;;4994102;28;19999;-71
2023/01/27 13:47:18;;;;;;;;;;;5.20;99.90;;;;;;4999659;28;19996;-73
2023/01/27 13:49:47;;;;;;;;;;;5.20;99.90;;;;;;5003627;28;19925;-71
2023/01/27 13:52:14;;;;;;;;;;;5.20;99.90;;;;;;5002942;28;20336;-71
2023/01/27 13:54:42;;;;;;;;;;;5.20;99.90;;;;;;5003273;28;19926;-70
2023/01/27 13:57:20;;;;;;;;;;;5.10;99.90;;;;;;5007240;28;19979;-72
2023/01/27 13:59:52;;;;;;;;;;;5.10;99.90;;;;;;4996890;28;19991;-71
2023/01/27 14:02:36;;;;;;;;;;;5.00;99.90;;;;;;4995964;28;19925;-72
2023/01/27 14:05:25;;;;;;;;;;;5.00;99.90;;;;;;5000320;28;19926;-72
2023/01/27 14:07:54;;;;;;;;;;;5.00;99.90;;;;;;4995646;28;20388;-71
2023/01/27 14:10:24;;;;;;;;;;;5.00;99.90;;;;;;4997356;28;20327;-72
2023/01/27 14:12:58;;;;;;;;;;;4.90;99.90;;;;;;4997073;28;19980;-73
2023/01/27 14:15:28;;;;;;;;;;;5.00;99.90;;;;;;5003059;28;19984;-71
2023/01/27 14:18:00;;;;;;;;;;;5.00;99.90;;;;;;4999086;28;19926;-83
2023/01/27 14:20:36;;;;;;;;;;;5.00;99.90;;;;;;5000037;28;19988;-73
2023/01/27 14:23:09;;;;;;;;;;;4.90;99.90;;;;;;5003810;28;20308;-71
2023/01/27 14:25:41;;;;;;;;;;;4.90;99.90;;;;;;5000858;28;19933;-72
2023/01/27 14:28:16;;;;;;;;;;;4.90;99.90;;;;;;5002584;28;19926;-72
2023/01/27 14:30:44;;;;;;;;;;;4.90;99.90;;;;;;5000428;28;19926;-71
2023/01/27 14:33:16;;;;;;;;;;;4.80;99.90;;;;;;4997382;28;20451;-71
2023/01/27 14:35:48;;;;;;;;;;;4.80;99.90;;;;;;4998983;28;20353;-72
2023/01/27 14:38:17;;;;;;;;;;;4.80;99.90;;;;;;4998723;28;20464;-72
2023/01/27 14:40:53;;;;;;;;;;;4.80;99.90;;;;;;5015754;28;20293;-72
2023/01/27 14:43:25;;;;;;;;;;;4.80;99.90;;;;;;5000173;28;19988;-69
2023/01/27 14:45:55;;;;;;;;;;;4.80;99.90;;;;;;5001746;28;19930;-71
2023/01/27 14:48:29;;;;;;;;;;;4.80;99.90;;;;;;5000310;28;19925;-71
2023/01/27 14:51:02;;;;;;;;;;;4.80;99.90;;;;;;5013293;28;20017;-70
2023/01/27 14:53:35;;;;;;;;;;;4.80;99.90;;;;;;4996327;28;20539;-74
2023/01/27 14:56:10;;;;;;;;;;;4.80;99.90;;;;;;4997686;28;20400;-72
2023/01/27 14:58:44;;;;;;;;;;;4.80;99.90;;;;;;4989690;28;19930;-72
2023/01/27 15:01:18;;;;;;;;;;;4.80;99.90;;;;;;5001004;28;20389;-71
2023/01/27 15:03:59;;;;;;;;;;;4.80;99.90;;;;;;5005666;28;19926;-71
2023/01/27 15:06:30;;;;;;;;;;;4.80;99.90;;;;;;4995919;28;19925;-70
2023/01/27 15:09:01;;;;;;;;;;;4.70;99.90;;;;;;4995891;28;19929;-70
2023/01/27 15:11:37;;;;;;;;;;;4.80;99.90;;;;;;5004100;28;19930;-70
2023/01/27 15:14:16;;;;;;;;;;;4.80;99.90;;;;;;5002257;28;20323;-71
2023/01/27 15:16:47;;;;;;;;;;;4.80;99.90;;;;;;4998529;28;19926;-72
2023/01/27 15:19:23;;;;;;;;;;;4.80;99.90;;;;;;5000273;28;19929;-71
2023/01/27 15:22:01;;;;;;;;;;;4.70;99.90;;;;;;5000912;28;19926;-71
2023/01/27 15:24:33;;;;;;;;;;;4.70;99.90;;;;;;4995777;28;20049;-72
2023/01/27 15:27:01;;;;;;;;;;;4.70;99.90;;;;;;5010320;28;19965;-72
2023/01/27 15:29:29;;;;;;;;;;;4.70;99.90;;;;;;4994127;28;20298;-72
2023/01/27 15:32:15;;;;;;;;;;;4.70;99.90;;;;;;4997601;28;19960;-71
2023/01/27 15:34:42;;;;;;;;;;;4.70;99.90;;;;;;5018307;28;19981;-70
2023/01/27 15:37:20;;;;;;;;;;;4.70;99.90;;;;;;5003389;28;20405;-71
2023/01/27 15:40:05;;;;;;;;;;;4.60;99.90;;;;;;5016327;28;20029;-71
2023/01/27 15:42:46;;;;;;;;;;;4.60;99.90;;;;;;4998367;28;19932;-72
2023/01/27 15:45:27;;;;;;;;;;;4.60;99.90;;;;;;4999664;28;19933;-72
2023/01/27 15:47:57;;;;;;;;;;;4.60;99.90;;;;;;4995043;28;20332;-71
2023/01/27 15:50:26;;;;;;;;;;;4.60;99.90;;;;;;4997899;28;20446;-70
2023/01/27 15:52:59;;;;;;;;;;;4.60;99.90;;;;;;5001176;28;20388;-70
2023/01/27 15:55:27;;;;;;;;;;;4.60;99.90;;;;;;4995709;28;20289;-70
2023/01/27 15:58:01;;;;;;;;;;;4.60;99.90;;;;;;5002948;28;20052;-69
2023/01/27 16:00:31;;;;;;;;;;;4.60;99.90;;;;;;4996502;28;19925;-70
2023/01/27 16:03:01;;;;;;;;;;;4.60;99.90;;;;;;5000729;28;20373;-70
2023/01/27 16:05:29;;;;;;;;;;;4.60;99.90;;;;;;5000162;28;19932;-71
2023/01/27 16:07:59;;;;;;;;;;;4.60;99.90;;;;;;5003019;28;19933;-69
2023/01/27 16:10:29;;;;;;;;;;;4.60;99.90;;;;;;4999480;28;19965;-70
2023/01/27 16:13:10;;;;;;;;;;;4.60;99.90;;;;;;5012755;28;19925;-69
2023/01/27 16:15:38;;;;;;;;;;;4.60;99.90;;;;;;5000155;28;19938;-71
2023/01/27 16:18:25;;;;;;;;;;;4.70;99.90;;;;;;5005342;28;19925;-70
2023/01/27 16:20:54;;;;;;;;;;;4.70;99.90;;;;;;5001650;28;20400;-69
2023/01/27 16:23:26;;;;;;;;;;;4.60;99.90;;;;;;4997742;28;19996;-69
2023/01/27 16:25:59;;;;;;;;;;;4.60;99.90;;;;;;4996708;28;19971;-70
2023/01/27 16:28:27;;;;;;;;;;;4.60;99.90;;;;;;4996636;28;20356;-70
2023/01/27 16:31:01;;;;;;;;;;;4.60;99.90;;;;;;5010227;28;20458;-70
2023/01/27 16:33:31;;;;;;;;;;;4.50;99.90;;;;;;4995595;28;19925;-69
2023/01/27 16:36:03;;;;;;;;;;;4.50;99.90;;;;;;5000071;28;19926;-70
2023/01/27 16:38:31;;;;;;;;;;;4.50;99.90;;;;;;4994489;28;19949;-69
2023/01/27 16:41:00;;;;;;;;;;;4.40;99.90;;;;;;5005599;28;20044;-70
2023/01/27 16:43:30;;;;;;;;;;;4.40;99.90;;;;;;5000532;28;19957;-70
2023/01/27 16:45:59;;;;;;;;;;;4.40;99.90;;;;;;5000670;28;20278;-70
2023/01/27 16:48:28;;;;;;;;;;;4.40;99.90;;;;;;5001313;28;19930;-70
2023/01/27 16:51:05;;;;;;;;;;;4.40;99.90;;;;;;4995039;28;20345;-70
2023/01/27 16:53:32;;;;;;;;;;;4.30;99.90;;;;;;5002219;28;20356;-71
2023/01/27 16:56:00;;;;;;;;;;;4.40;99.90;;;;;;5003644;28;20445;-71
2023/01/27 16:58:27;;;;;;;;;;;4.40;99.90;;;;;;5002513;28;20401;-71
2023/01/27 17:00:54;;;;;;;;;;;4.30;99.90;;;;;;5006192;28;20447;-71
2023/01/27 17:03:25;;;;;;;;;;;4.30;99.90;;;;;;5002001;28;20304;-70
2023/01/27 17:05:53;;;;;;;;;;;4.30;99.90;;;;;;5003371;28;20418;-70
2023/01/27 17:08:22;;;;;;;;;;;4.30;99.90;;;;;;5000177;28;19988;-70
2023/01/27 17:10:50;;;;;;;;;;;4.30;99.90;;;;;;5004994;28;19972;-71
2023/01/27 17:13:25;;;;;;;;;;;4.30;99.90;;;;;;4995664;28;20020;-70
2023/01/27 17:15:52;;;;;;;;;;;4.30;99.90;;;;;;4998395;28;19926;-75
2023/01/27 17:18:19;;;;;;;;;;;4.30;99.90;;;;;;4995974;28;19926;-77
2023/01/27 17:20:47;;;;;;;;;;;4.30;99.90;;;;;;4995628;28;19993;-71
2023/01/27 17:23:22;;;;;;;;;;;4.30;99.90;;;;;;4992315;28;19925;-71
2023/01/27 17:25:49;;;;;;;;;;;4.20;99.90;;;;;;4995604;28;20024;-69
2023/01/27 17:28:19;;;;;;;;;;;4.20;99.90;;;;;;4994451;28;19929;-70
2023/01/27 17:30:46;;;;;;;;;;;4.20;99.90;;;;;;4994968;28;19933;-69
2023/01/27 17:33:16;;;;;;;;;;;4.20;99.90;;;;;;4996055;28;20396;-69
2023/01/27 17:35:48;;;;;;;;;;;4.10;99.90;;;;;;5007080;28;20422;-70
2023/01/27 17:38:18;;;;;;;;;;;4.00;99.90;;;;;;5007795;28;20404;-69
2023/01/27 17:40:46;;;;;;;;;;;4.10;99.90;;;;;;5001666;28;19976;-71
2023/01/27 17:43:28;;;;;;;;;;;4.10;99.90;;;;;;5000691;28;19929;-70
2023/01/27 17:46:09;;;;;;;;;;;4.10;99.90;;;;;;5016521;28;19975;-68
2023/01/27 17:48:39;;;;;;;;;;;4.00;99.90;;;;;;4995558;28;19986;-73
2023/01/27 17:51:06;;;;;;;;;;;4.00;99.90;;;;;;4996114;28;19937;-71
2023/01/27 17:53:35;;;;;;;;;;;4.00;99.90;;;;;;5002611;28;19965;-72
2023/01/27 17:56:10;;;;;;;;;;;3.90;99.90;;;;;;5005244;28;19926;-74
2023/01/27 17:58:37;;;;;;;;;;;4.00;99.90;;;;;;5006746;28;20364;-73
2023/01/27 18:01:04;;;;;;;;;;;4.00;99.90;;;;;;5004939;28;19926;-73
2023/01/27 18:03:33;;;;;;;;;;;4.00;99.90;;;;;;5002025;28;19936;-72
2023/01/27 18:06:00;;;;;;;;;;;4.00;99.90;;;;;;5003502;28;20470;-72
2023/01/27 18:08:27;;;;;;;;;;;4.00;99.90;;;;;;5005093;28;19926;-73
2023/01/27 18:11:08;;;;;;;;;;;4.00;99.90;;;;;;5008080;28;19979;-73
2023/01/27 18:13:36;;;;;;;;;;;4.00;99.90;;;;;;5002554;28;19957;-72
2023/01/27 18:16:06;;;;;;;;;;;3.90;99.90;;;;;;5006756;28;19996;-73
2023/01/27 18:18:34;;;;;;;;;;;3.90;99.90;;;;;;5001127;28;19932;-71
2023/01/27 18:21:06;;;;;;;;;;;3.90;99.90;;;;;;5004680;28;19929;-73
2023/01/27 18:23:33;;;;;;;;;;;4.00;99.90;;;;;;5004856;28;19925;-73
2023/01/27 18:26:06;;;;;;;;;;;4.00;99.90;;;;;;5005544;28;19930;-72
2023/01/27 18:28:34;;;;;;;;;;;4.00;99.90;;;;;;5004594;28;19925;-73
2023/01/27 18:31:01;;;;;;;;;;;4.00;99.90;;;;;;5005092;28;19930;-73
2023/01/27 18:33:28;;;;;;;;;;;3.90;99.90;;;;;;5007222;28;19926;-74
2023/01/27 18:35:56;;;;;;;;;;;3.90;99.90;;;;;;5010610;28;20347;-74
2023/01/27 18:38:24;;;;;;;;;;;3.90;99.90;;;;;;5002644;28;20426;-73
2023/01/27 18:40:51;;;;;;;;;;;3.90;99.90;;;;;;5007503;28;19933;-74
2023/01/27 18:43:19;;;;;;;;;;;3.90;99.90;;;;;;4997481;28;19934;-72
2023/01/27 18:45:46;;;;;;;;;;;3.80;99.90;;;;;;4999090;28;19926;-74
2023/01/27 18:48:13;;;;;;;;;;;3.80;99.90;;;;;;4995239;28;19925;-74
2023/01/27 18:50:41;;;;;;;;;;;3.90;99.90;;;;;;5004161;28;19930;-75
2023/01/27 18:53:12;;;;;;;;;;;3.80;99.90;;;;;;5004142;28;19936;-75